ヌーク の空港の天気 - METARとTAF

ヌーク空港 ( BGGH / GOH ) - グリーンランド ヌーク
飛行場実況気象(Metar)
観測時間05/28 20:50 WGST (05/28 22:50 UTC)
風向・風速北北西 5m/s
視程-
天気現象
全天を覆う雲 雲底高度 270m
気温0℃
湿度93%
気圧1012hPa
METARBGGH 282250Z AUTO 34010KT 9999NDV OVC009/// 00/M01 Q1012
過去の天気等 Google飛行場航空写真 Wunderground天気予報

過去48時間のMETAR

飛行場予報(TAF)
発表時間: 5/28 12:16 WGST (5/28 14:16 UTC)
予報対象時間: 28日13時 WGST ~ 28日19時 WGST
風向・風速北 8m/s
視程10km以上
全天の4割程度の雲 雲底高度 490m
28日13時 WGST ~ 28日19時 WGST に一時的に
全天の8割程度の雲 雲底高度 370m
TAF BGGH 281416Z 2815/2821 35015KT 9999 SCT016
TEMPO 2815/2821 BKN012